createdAt,value
2019-03-21T00:00:51.909Z,9.54
2019-03-21T00:03:23.121Z,9.56
2019-03-21T00:05:55.645Z,9.60
2019-03-21T00:08:26.690Z,9.60
2019-03-21T00:11:43.743Z,9.58
2019-03-21T00:14:58.130Z,9.59
2019-03-21T00:17:35.055Z,9.58
2019-03-21T00:20:16.721Z,9.58
2019-03-21T00:22:50.893Z,9.60
2019-03-21T00:25:23.515Z,9.63
2019-03-21T00:27:54.792Z,9.63
2019-03-21T00:30:25.702Z,9.63
2019-03-21T00:32:56.563Z,9.65
2019-03-21T00:35:27.627Z,9.67
2019-03-21T00:37:58.549Z,9.68
2019-03-21T00:40:32.552Z,9.70
2019-03-21T00:43:05.341Z,9.70
2019-03-21T00:45:36.558Z,9.71
2019-03-21T00:48:11.276Z,9.71
2019-03-21T00:50:42.563Z,9.72
2019-03-21T00:53:13.766Z,9.76
2019-03-21T00:55:45.757Z,9.77
2019-03-21T00:58:16.737Z,9.81
2019-03-21T01:00:51.291Z,9.83
2019-03-21T01:03:22.514Z,9.82
2019-03-21T01:05:53.932Z,9.83
2019-03-21T01:08:24.889Z,9.82
2019-03-21T01:10:55.763Z,9.82
2019-03-21T01:13:29.574Z,9.87
2019-03-21T01:16:00.580Z,9.92
2019-03-21T01:18:31.851Z,9.91
2019-03-21T01:21:02.787Z,9.90
2019-03-21T01:23:33.634Z,9.88
2019-03-21T01:26:05.152Z,9.89
2019-03-21T01:28:36.265Z,9.90
2019-03-21T01:31:07.105Z,9.92
2019-03-21T01:33:38.095Z,9.93
2019-03-21T01:36:09.113Z,9.98
2019-03-21T01:38:40.431Z,9.99
2019-03-21T01:41:11.454Z,10.01
2019-03-21T01:43:42.751Z,10.00
2019-03-21T01:46:14.251Z,10.00
2019-03-21T01:48:46.097Z,10.02
2019-03-21T01:51:17.442Z,10.02
2019-03-21T01:53:48.343Z,10.05
2019-03-21T01:56:19.197Z,10.07
2019-03-21T01:58:52.336Z,10.09
2019-03-21T02:01:23.764Z,10.11
2019-03-21T02:03:56.486Z,10.15
2019-03-21T02:06:28.168Z,10.17
2019-03-21T02:08:59.238Z,10.17
2019-03-21T02:11:30.125Z,10.17
2019-03-21T02:14:01.087Z,10.16
2019-03-21T02:16:31.899Z,10.16
2019-03-21T02:19:03.130Z,10.16
2019-03-21T02:21:34.239Z,10.21
2019-03-21T02:24:06.011Z,10.22
2019-03-21T02:26:36.739Z,10.21
2019-03-21T02:29:08.053Z,10.28
2019-03-21T02:31:39.379Z,10.35
2019-03-21T02:34:10.705Z,10.38
2019-03-21T02:36:41.564Z,10.44
2019-03-21T02:39:12.559Z,10.41
2019-03-21T02:41:44.247Z,10.44
2019-03-21T02:44:15.278Z,10.44
2019-03-21T02:46:46.458Z,10.47
2019-03-21T02:49:17.477Z,10.39
2019-03-21T02:51:48.276Z,10.43
2019-03-21T02:54:20.165Z,10.46
2019-03-21T02:56:51.463Z,10.49
2019-03-21T02:59:22.435Z,10.47
2019-03-21T03:01:53.774Z,10.49
2019-03-21T03:04:24.932Z,10.53
2019-03-21T03:06:55.807Z,10.51
2019-03-21T03:09:26.727Z,10.43
2019-03-21T03:11:57.588Z,10.36
2019-03-21T03:14:28.459Z,10.32
2019-03-21T03:16:59.842Z,10.31
2019-03-21T03:19:30.715Z,10.27
2019-03-21T03:22:01.910Z,10.21
2019-03-21T03:24:34.464Z,10.20
2019-03-21T03:27:05.296Z,10.16
2019-03-21T03:29:36.215Z,10.12
2019-03-21T03:32:07.067Z,10.08
2019-03-21T03:34:38.424Z,10.04
2019-03-21T03:37:09.648Z,10.01
2019-03-21T03:39:40.787Z,9.94
2019-03-21T03:42:11.927Z,9.93
2019-03-21T03:44:43.203Z,9.88
2019-03-21T03:47:14.049Z,9.82
2019-03-21T03:49:45.367Z,9.76
2019-03-21T03:52:16.605Z,9.72
2019-03-21T03:54:47.772Z,9.73
2019-03-21T03:57:19.018Z,9.74
2019-03-21T03:59:50.387Z,9.72
2019-03-21T04:02:21.315Z,9.75
2019-03-21T04:04:52.147Z,9.80
2019-03-21T04:07:23.659Z,9.81
2019-03-21T04:09:54.523Z,9.86
2019-03-21T04:12:25.416Z,9.82
2019-03-21T04:14:56.559Z,9.80
2019-03-21T04:17:27.410Z,9.79
2019-03-21T04:19:58.233Z,9.76
2019-03-21T04:22:29.025Z,9.77
2019-03-21T04:25:00.490Z,9.77
2019-03-21T04:27:31.578Z,9.76
2019-03-21T04:30:02.626Z,9.75
2019-03-21T04:32:33.499Z,9.68
2019-03-21T04:35:04.534Z,9.69
2019-03-21T04:37:35.330Z,9.66
2019-03-21T04:40:07.427Z,9.68
2019-03-21T04:42:38.591Z,9.67
2019-03-21T04:45:12.479Z,9.67
2019-03-21T04:47:45.587Z,9.67
2019-03-21T04:50:19.296Z,9.66
2019-03-21T04:52:50.158Z,9.70
2019-03-21T04:55:21.727Z,9.72
2019-03-21T04:57:52.559Z,9.69
2019-03-21T05:00:26.132Z,9.62
2019-03-21T05:02:59.376Z,9.63
2019-03-21T05:05:30.587Z,9.63
2019-03-21T05:08:02.018Z,9.63
2019-03-21T05:10:33.219Z,9.61
2019-03-21T05:13:04.775Z,9.62
2019-03-21T05:15:38.066Z,9.65
2019-03-21T05:18:12.619Z,9.70
2019-03-21T05:20:44.252Z,9.72
2019-03-21T05:23:15.137Z,9.64
2019-03-21T05:25:47.252Z,9.59
2019-03-21T05:28:18.213Z,9.56
2019-03-21T05:30:58.604Z,9.44
2019-03-21T05:33:29.464Z,9.30
2019-03-21T05:36:10.487Z,9.32
2019-03-21T05:38:41.800Z,9.30
2019-03-21T05:41:12.774Z,9.33
2019-03-21T05:43:47.531Z,9.26
2019-03-21T05:46:26.547Z,9.21
2019-03-21T05:48:52.267Z,9.15
2019-03-21T05:51:23.081Z,9.12
2019-03-21T05:53:54.640Z,9.07
2019-03-21T05:56:25.897Z,9.09
2019-03-21T05:58:56.773Z,9.10
2019-03-21T06:01:27.663Z,9.06
2019-03-21T06:03:58.597Z,9.05
2019-03-21T06:06:58.696Z,9.02
2019-03-21T06:09:29.560Z,9.03
2019-03-21T06:12:00.672Z,9.00
2019-03-21T06:14:32.143Z,9.02
2019-03-21T06:17:02.896Z,9.04
2019-03-21T06:19:59.084Z,9.10
2019-03-21T06:22:59.269Z,9.08
2019-03-21T06:26:11.529Z,9.07
2019-03-21T06:28:42.340Z,9.03
2019-03-21T06:31:14.239Z,9.03
2019-03-21T06:33:45.110Z,9.02
2019-03-21T06:36:16.244Z,9.03
2019-03-21T06:38:47.103Z,9.08
2019-03-21T06:41:17.997Z,9.07
2019-03-21T06:43:48.847Z,9.04
2019-03-21T06:46:20.040Z,9.00
2019-03-21T06:48:51.305Z,8.96
2019-03-21T06:51:22.226Z,8.96
2019-03-21T06:53:53.413Z,9.01
2019-03-21T06:56:24.698Z,9.02
2019-03-21T06:58:55.630Z,9.05
2019-03-21T07:01:28.132Z,9.01
2019-03-21T07:04:06.891Z,9.02
2019-03-21T07:06:32.430Z,9.04
2019-03-21T07:09:05.782Z,8.96
2019-03-21T07:11:37.592Z,8.93
2019-03-21T07:14:09.115Z,8.92
2019-03-21T07:16:40.447Z,8.89
2019-03-21T07:19:11.320Z,8.91
2019-03-21T07:21:42.756Z,8.84
2019-03-21T07:24:13.860Z,8.84
2019-03-21T07:26:44.884Z,8.83
2019-03-21T07:29:16.111Z,8.80
2019-03-21T07:31:47.373Z,8.80
2019-03-21T07:34:19.744Z,8.78
2019-03-21T07:36:51.055Z,8.84
2019-03-21T07:39:22.474Z,8.87
2019-03-21T07:41:53.330Z,8.87
2019-03-21T07:44:24.865Z,8.92
2019-03-21T07:46:55.780Z,8.89
2019-03-21T07:49:26.644Z,8.91
2019-03-21T07:51:57.839Z,8.93
2019-03-21T07:54:29.193Z,8.89
2019-03-21T07:57:00.073Z,8.92
2019-03-21T07:59:30.941Z,8.96
2019-03-21T08:02:02.336Z,8.98
2019-03-21T08:04:33.122Z,8.99
2019-03-21T08:07:04.064Z,8.94
2019-03-21T08:09:35.177Z,8.92
2019-03-21T08:12:06.662Z,8.87
2019-03-21T08:14:38.286Z,8.84
2019-03-21T08:17:09.395Z,8.80
2019-03-21T08:19:41.087Z,8.81
2019-03-21T08:22:12.291Z,8.80
2019-03-21T08:24:43.185Z,8.76
2019-03-21T08:27:14.628Z,8.80
2019-03-21T08:29:46.324Z,8.79
2019-03-21T08:32:17.816Z,8.81
2019-03-21T08:34:49.558Z,8.80
2019-03-21T08:37:20.830Z,8.84
2019-03-21T08:39:51.935Z,8.93
2019-03-21T08:42:22.814Z,9.04
2019-03-21T08:44:53.864Z,9.04
2019-03-21T08:47:25.105Z,9.14
2019-03-21T08:49:56.410Z,9.22
2019-03-21T08:52:28.066Z,9.38
2019-03-21T08:54:59.317Z,9.50
2019-03-21T08:57:30.292Z,9.55
2019-03-21T09:00:03.002Z,9.58
2019-03-21T09:02:34.198Z,9.63
2019-03-21T09:05:06.153Z,9.63
2019-03-21T09:07:36.999Z,9.71
2019-03-21T09:10:08.569Z,9.70
2019-03-21T09:12:42.502Z,9.78
2019-03-21T09:15:12.883Z,9.70
2019-03-21T09:17:44.498Z,9.84
2019-03-21T09:20:15.810Z,9.88
2019-03-21T09:22:47.852Z,10.03
2019-03-21T09:25:19.592Z,10.19
2019-03-21T09:28:01.924Z,10.25
2019-03-21T09:30:24.134Z,10.36
2019-03-21T09:32:55.426Z,10.47
2019-03-21T09:35:26.642Z,10.52
2019-03-21T09:37:57.502Z,10.57
2019-03-21T09:40:29.190Z,10.67
2019-03-21T09:43:00.052Z,10.74
2019-03-21T09:45:31.885Z,10.84
2019-03-21T09:48:02.675Z,10.90
2019-03-21T09:50:33.512Z,11.02
2019-03-21T09:53:04.784Z,11.06
2019-03-21T09:55:36.059Z,11.13
2019-03-21T09:58:07.329Z,11.05
2019-03-21T10:00:38.632Z,10.97
2019-03-21T10:03:09.453Z,10.90
2019-03-21T10:05:40.568Z,10.86
2019-03-21T10:08:11.495Z,10.90
2019-03-21T10:10:42.355Z,10.91
2019-03-21T10:13:13.288Z,10.90
2019-03-21T10:15:44.423Z,10.92
2019-03-21T10:18:15.807Z,10.90
2019-03-21T10:20:46.724Z,10.84
2019-03-21T10:23:17.930Z,10.88
2019-03-21T10:25:49.215Z,10.95
2019-03-21T10:28:20.023Z,11.01
2019-03-21T10:30:50.849Z,10.98
2019-03-21T10:33:22.161Z,11.04
2019-03-21T10:35:53.372Z,11.09
2019-03-21T10:38:24.494Z,11.08
2019-03-21T10:40:56.103Z,11.05
2019-03-21T10:43:27.115Z,11.08
2019-03-21T10:45:58.696Z,11.11
2019-03-21T10:48:29.855Z,11.17
2019-03-21T10:51:02.172Z,11.25
2019-03-21T10:53:34.375Z,11.23
2019-03-21T10:56:05.351Z,11.29
2019-03-21T10:58:36.671Z,11.24
2019-03-21T11:01:07.468Z,11.24
2019-03-21T11:03:38.591Z,11.28
2019-03-21T11:06:09.508Z,11.34
2019-03-21T11:08:41.393Z,11.37
2019-03-21T11:11:14.208Z,11.40
2019-03-21T11:13:46.121Z,11.40
2019-03-21T11:16:17.485Z,11.33
2019-03-21T11:18:48.290Z,11.33
2019-03-21T11:21:20.081Z,11.44
2019-03-21T11:23:51.325Z,11.50
2019-03-21T11:26:22.362Z,11.56
2019-03-21T11:28:53.771Z,11.60
2019-03-21T11:31:25.198Z,11.59
2019-03-21T11:33:56.201Z,11.62
2019-03-21T11:36:37.800Z,11.73
2019-03-21T11:38:59.800Z,11.88
2019-03-21T11:41:33.992Z,11.96
2019-03-21T11:44:04.834Z,12.06
2019-03-21T11:46:36.112Z,12.13
2019-03-21T11:49:07.672Z,12.13
2019-03-21T11:51:38.564Z,12.21
2019-03-21T11:54:09.348Z,12.34
2019-03-21T11:56:40.868Z,12.49
2019-03-21T11:59:12.277Z,12.49
2019-03-21T12:01:43.546Z,12.42
2019-03-21T12:04:14.358Z,12.40
2019-03-21T12:06:45.184Z,12.34
2019-03-21T12:09:16.299Z,12.37
2019-03-21T12:11:47.207Z,12.51
2019-03-21T12:14:17.961Z,12.47
2019-03-21T12:16:48.718Z,12.53
2019-03-21T12:19:19.604Z,12.58
2019-03-21T12:21:50.345Z,12.64
2019-03-21T12:24:21.336Z,12.62
2019-03-21T12:26:52.446Z,12.62
2019-03-21T12:29:23.331Z,12.65
2019-03-21T12:31:54.386Z,12.70
2019-03-21T12:34:25.902Z,12.60
2019-03-21T12:36:56.951Z,12.60
2019-03-21T12:39:29.148Z,12.70
2019-03-21T12:42:00.104Z,12.87
2019-03-21T12:44:31.329Z,12.85
2019-03-21T12:47:02.472Z,12.85
2019-03-21T12:49:33.621Z,12.79
2019-03-21T12:52:04.785Z,12.70
2019-03-21T12:54:35.719Z,12.70
2019-03-21T12:57:07.103Z,12.59
2019-03-21T12:59:38.649Z,12.57
2019-03-21T13:02:10.510Z,12.57
2019-03-21T13:04:41.310Z,12.58
2019-03-21T13:07:14.101Z,12.58
2019-03-21T13:09:45.362Z,12.58
2019-03-21T13:12:16.257Z,12.52
2019-03-21T13:14:47.195Z,12.41
2019-03-21T13:17:18.086Z,12.40
2019-03-21T13:19:49.735Z,12.46
2019-03-21T13:22:20.881Z,12.49
2019-03-21T13:24:52.599Z,12.43
2019-03-21T13:27:23.549Z,12.43
2019-03-21T13:29:54.981Z,12.39
2019-03-21T13:32:25.915Z,12.46
2019-03-21T13:34:56.768Z,12.46
2019-03-21T13:37:28.368Z,12.40
2019-03-21T13:39:59.289Z,12.36
2019-03-21T13:42:30.197Z,12.36
2019-03-21T13:45:01.003Z,12.38
2019-03-21T13:47:32.990Z,12.41
2019-03-21T13:50:05.210Z,12.35
2019-03-21T13:52:37.066Z,12.27
2019-03-21T13:55:08.297Z,12.32
2019-03-21T13:57:39.564Z,12.34
2019-03-21T14:00:12.837Z,12.34
2019-03-21T14:02:43.927Z,12.31
2019-03-21T14:05:15.277Z,12.24
2019-03-21T14:07:46.782Z,12.16
2019-03-21T14:10:18.256Z,12.18
2019-03-21T14:12:49.479Z,12.26
2019-03-21T14:15:21.033Z,12.26
2019-03-21T14:17:51.868Z,12.32
2019-03-21T14:20:23.180Z,12.26
2019-03-21T14:22:54.366Z,12.33
2019-03-21T14:25:25.678Z,12.47
2019-03-21T14:27:58.273Z,12.47
2019-03-21T14:30:29.676Z,12.40
2019-03-21T14:33:01.237Z,12.38
2019-03-21T14:35:32.204Z,12.32
2019-03-21T14:38:03.708Z,12.32
2019-03-21T14:40:35.456Z,12.24
2019-03-21T14:43:06.600Z,12.24
2019-03-21T14:45:38.055Z,12.25
2019-03-21T14:48:09.373Z,12.24
2019-03-21T14:50:40.194Z,12.11
2019-03-21T14:53:13.979Z,12.05
2019-03-21T14:55:47.766Z,12.05
2019-03-21T14:58:18.212Z,11.95
2019-03-21T15:00:49.093Z,11.89
2019-03-21T15:03:20.745Z,11.87
2019-03-21T15:05:51.927Z,11.85
2019-03-21T15:08:22.937Z,11.88
2019-03-21T15:10:54.229Z,11.83
2019-03-21T15:13:25.351Z,11.67
2019-03-21T15:16:03.705Z,11.63
2019-03-21T15:18:35.579Z,11.55
2019-03-21T15:21:07.443Z,11.51
2019-03-21T15:23:40.820Z,11.56
2019-03-21T15:26:12.286Z,11.55
2019-03-21T15:28:43.473Z,11.48
2019-03-21T15:31:14.699Z,11.48
2019-03-21T15:33:46.112Z,11.46
2019-03-21T15:36:17.169Z,11.38
2019-03-21T15:38:50.141Z,11.35
2019-03-21T15:41:21.571Z,11.29
2019-03-21T15:43:52.390Z,11.18
2019-03-21T15:46:23.905Z,11.13
2019-03-21T15:48:55.934Z,11.13
2019-03-21T15:51:26.876Z,11.12
2019-03-21T15:53:57.750Z,11.07
2019-03-21T15:56:28.806Z,11.08
2019-03-21T15:58:59.774Z,11.10
2019-03-21T16:01:31.440Z,11.10
2019-03-21T16:04:02.579Z,11.03
2019-03-21T16:06:33.587Z,11.01
2019-03-21T16:09:04.684Z,11.01
2019-03-21T16:11:35.493Z,10.98
2019-03-21T16:14:06.410Z,10.92
2019-03-21T16:16:38.128Z,10.87
2019-03-21T16:19:09.720Z,10.84
2019-03-21T16:21:40.938Z,10.78
2019-03-21T16:24:13.385Z,10.78
2019-03-21T16:26:44.755Z,10.75
2019-03-21T16:29:15.813Z,10.74
2019-03-21T16:31:46.980Z,10.72
2019-03-21T16:34:18.491Z,10.73
2019-03-21T16:36:49.284Z,10.71
2019-03-21T16:39:21.082Z,10.67
2019-03-21T16:41:52.186Z,10.69
2019-03-21T16:44:24.088Z,10.74
2019-03-21T16:46:54.822Z,10.75
2019-03-21T16:49:25.723Z,10.71
2019-03-21T16:51:56.822Z,10.68
2019-03-21T16:54:30.285Z,10.73
2019-03-21T16:57:01.047Z,10.75
2019-03-21T16:59:32.757Z,10.69
2019-03-21T17:02:04.479Z,10.75
2019-03-21T17:04:35.838Z,10.73
2019-03-21T17:07:08.264Z,10.66
2019-03-21T17:09:39.521Z,10.60
2019-03-21T17:12:10.472Z,10.60
2019-03-21T17:14:41.583Z,10.60
2019-03-21T17:17:13.161Z,10.60
2019-03-21T17:19:44.392Z,10.60
2019-03-21T17:22:15.309Z,10.60
2019-03-21T17:24:46.505Z,10.59
2019-03-21T17:27:17.363Z,10.58
2019-03-21T17:29:48.158Z,10.55
2019-03-21T17:32:19.402Z,10.48
2019-03-21T17:34:50.267Z,10.44
2019-03-21T17:37:21.732Z,10.40
2019-03-21T17:39:52.804Z,10.37
2019-03-21T17:42:23.672Z,10.33
2019-03-21T17:44:54.811Z,10.31
2019-03-21T17:47:26.396Z,10.31
2019-03-21T17:49:57.205Z,10.29
2019-03-21T17:52:27.979Z,10.27
2019-03-21T17:54:58.689Z,10.24
2019-03-21T17:57:34.642Z,10.24
2019-03-21T18:00:03.145Z,10.27
2019-03-21T18:02:34.072Z,10.27
2019-03-21T18:05:08.043Z,10.27
2019-03-21T18:07:40.247Z,10.26
2019-03-21T18:10:31.745Z,10.21
2019-03-21T18:13:03.118Z,10.17
2019-03-21T18:15:33.966Z,10.12
2019-03-21T18:18:04.996Z,10.13
2019-03-21T18:20:36.503Z,10.09
2019-03-21T18:23:07.906Z,10.11
2019-03-21T18:25:39.270Z,10.11
2019-03-21T18:28:10.084Z,10.13
2019-03-21T18:30:41.743Z,10.11
2019-03-21T18:33:12.538Z,10.08
2019-03-21T18:35:43.495Z,10.07
2019-03-21T18:38:17.920Z,10.07
2019-03-21T18:40:49.159Z,10.07
2019-03-21T18:43:19.955Z,10.08
2019-03-21T18:45:51.553Z,10.07
2019-03-21T18:48:22.341Z,10.09
2019-03-21T18:50:53.620Z,10.11
2019-03-21T18:53:25.823Z,10.12
2019-03-21T18:55:56.924Z,10.12
2019-03-21T18:58:27.695Z,10.13
2019-03-21T19:01:00.093Z,10.16
2019-03-21T19:03:30.906Z,10.17
2019-03-21T19:06:02.539Z,10.14
2019-03-21T19:08:33.494Z,10.07
2019-03-21T19:11:05.305Z,10.07
2019-03-21T19:13:36.511Z,10.02
2019-03-21T19:16:07.588Z,9.94
2019-03-21T19:18:38.364Z,9.88
2019-03-21T19:21:09.584Z,9.81
2019-03-21T19:23:41.502Z,9.79
2019-03-21T19:26:12.572Z,9.75
2019-03-21T19:28:44.183Z,9.75
2019-03-21T19:31:15.733Z,9.74
2019-03-21T19:33:46.989Z,9.69
2019-03-21T19:36:18.639Z,9.65
2019-03-21T19:38:51.566Z,9.64
2019-03-21T19:41:23.476Z,9.68
2019-03-21T19:43:54.250Z,9.71
2019-03-21T19:46:25.798Z,9.72
2019-03-21T19:48:57.169Z,9.74
2019-03-21T19:51:28.036Z,9.78
2019-03-21T19:53:58.917Z,9.80
2019-03-21T19:56:30.063Z,9.80
2019-03-21T19:59:01.340Z,9.80
2019-03-21T20:01:33.606Z,9.80
2019-03-21T20:04:04.681Z,9.81
2019-03-21T20:06:35.701Z,9.81
2019-03-21T20:09:09.689Z,9.80
2019-03-21T20:11:40.467Z,9.80
2019-03-21T20:14:12.124Z,9.76
2019-03-21T20:16:43.293Z,9.72
2019-03-21T20:19:14.713Z,9.71
2019-03-21T20:21:48.127Z,9.71
2019-03-21T20:24:19.258Z,9.67
2019-03-21T20:26:50.639Z,9.64
2019-03-21T20:29:21.768Z,9.60
2019-03-21T20:31:52.591Z,9.55
2019-03-21T20:34:25.279Z,9.55
2019-03-21T20:36:56.276Z,9.55
2019-03-21T20:39:27.722Z,9.58
2019-03-21T20:41:58.949Z,9.54
2019-03-21T20:44:29.786Z,9.54
2019-03-21T20:47:00.887Z,9.53
2019-03-21T20:49:31.708Z,9.58
2019-03-21T20:52:02.458Z,9.58
2019-03-21T20:54:33.896Z,9.61
2019-03-21T20:57:04.763Z,9.62
2019-03-21T20:59:36.430Z,9.62
2019-03-21T21:02:07.733Z,9.62
2019-03-21T21:04:39.436Z,9.61
2019-03-21T21:07:10.830Z,9.60
2019-03-21T21:09:41.615Z,9.59
2019-03-21T21:12:12.913Z,9.61
2019-03-21T21:14:44.332Z,9.67
2019-03-21T21:17:16.896Z,9.72
2019-03-21T21:19:48.076Z,9.70
2019-03-21T21:22:19.887Z,9.61
2019-03-21T21:24:51.331Z,9.55
2019-03-21T21:27:22.222Z,9.54
2019-03-21T21:29:53.106Z,9.56
2019-03-21T21:32:24.625Z,9.53
2019-03-21T21:34:56.627Z,9.50
2019-03-21T21:37:28.062Z,9.42
2019-03-21T21:39:59.449Z,9.35
2019-03-21T21:42:31.612Z,9.24
2019-03-21T21:45:03.612Z,9.21
2019-03-21T21:47:34.439Z,9.21
2019-03-21T21:50:06.847Z,9.21
2019-03-21T21:52:42.234Z,9.21
2019-03-21T21:55:10.766Z,9.24
2019-03-21T21:57:42.118Z,9.29
2019-03-21T22:00:14.572Z,9.31
2019-03-21T22:02:45.513Z,9.34
2019-03-21T22:05:16.634Z,9.34
2019-03-21T22:07:47.693Z,9.32
2019-03-21T22:10:18.742Z,9.28
2019-03-21T22:12:50.053Z,9.35
2019-03-21T22:15:21.236Z,9.32
2019-03-21T22:17:52.078Z,9.26
2019-03-21T22:20:22.824Z,9.21
2019-03-21T22:22:54.292Z,9.18
2019-03-21T22:25:25.157Z,9.17
2019-03-21T22:27:55.951Z,9.13
2019-03-21T22:30:26.833Z,9.13
2019-03-21T22:32:58.205Z,9.15
2019-03-21T22:35:28.951Z,9.15
2019-03-21T22:37:59.689Z,9.12
2019-03-21T22:40:30.805Z,9.12
2019-03-21T22:43:01.507Z,9.16
2019-03-21T22:45:32.355Z,9.17
2019-03-21T22:48:03.240Z,9.14
2019-03-21T22:50:35.607Z,9.16
2019-03-21T22:53:06.530Z,9.15
2019-03-21T22:55:37.673Z,9.15
2019-03-21T22:58:08.833Z,9.18
2019-03-21T23:00:44.227Z,9.21
2019-03-21T23:03:15.836Z,9.24
2019-03-21T23:05:46.571Z,9.24
2019-03-21T23:08:17.359Z,9.21
2019-03-21T23:10:48.886Z,9.23
2019-03-21T23:13:19.681Z,9.22
2019-03-21T23:15:50.857Z,9.19
2019-03-21T23:18:22.143Z,9.17
2019-03-21T23:20:52.944Z,9.17
2019-03-21T23:23:23.786Z,9.21
2019-03-21T23:25:55.014Z,9.21
2019-03-21T23:28:25.761Z,9.17
2019-03-21T23:30:57.209Z,9.18
2019-03-21T23:33:28.308Z,9.21
2019-03-21T23:36:00.024Z,9.24
2019-03-21T23:38:31.259Z,9.26
2019-03-21T23:41:02.059Z,9.24
2019-03-21T23:43:32.834Z,9.23
2019-03-21T23:46:03.659Z,9.20
2019-03-21T23:48:34.531Z,9.21
2019-03-21T23:51:05.324Z,9.19
2019-03-21T23:53:36.128Z,9.15
2019-03-21T23:56:07.265Z,9.13
2019-03-21T23:58:38.290Z,9.12
